createdAt,value
2022-10-11T00:01:45.042Z,13.17
2022-10-11T00:04:11.940Z,11.83
2022-10-11T00:06:38.753Z,13.50
2022-10-11T00:09:05.914Z,13.13
2022-10-11T00:11:32.904Z,12.63
2022-10-11T00:13:59.495Z,13.90
2022-10-11T00:16:26.114Z,12.83
2022-10-11T00:18:52.707Z,15.90
2022-10-11T00:21:20.950Z,12.43
2022-10-11T00:23:48.505Z,13.80
2022-10-11T00:26:15.825Z,13.33
2022-10-11T00:28:43.039Z,16.67
2022-10-11T00:31:13.476Z,14.07
2022-10-11T00:33:40.422Z,14.43
2022-10-11T00:36:08.810Z,13.40
2022-10-11T00:38:35.995Z,14.00
2022-10-11T00:41:02.908Z,13.53
2022-10-11T00:43:31.213Z,13.83
2022-10-11T00:45:57.743Z,12.57
2022-10-11T00:48:33.259Z,12.20
2022-10-11T00:51:02.471Z,12.50
2022-10-11T00:53:32.570Z,12.13
2022-10-11T00:56:06.257Z,12.33
2022-10-11T00:58:36.241Z,12.10
2022-10-11T01:01:03.671Z,12.97
2022-10-11T01:03:32.445Z,12.90
2022-10-11T01:05:59.096Z,12.90
2022-10-11T01:08:26.886Z,15.55
2022-10-11T01:10:53.666Z,13.60
2022-10-11T01:13:36.640Z,16.67
2022-10-11T01:16:29.947Z,16.20
2022-10-11T01:19:48.607Z,14.83
2022-10-11T01:22:36.434Z,17.03
2022-10-11T01:25:18.417Z,19.07
2022-10-11T01:28:04.364Z,16.27
2022-10-11T01:30:33.799Z,15.97
2022-10-11T01:33:17.807Z,18.37
2022-10-11T01:35:44.785Z,19.03
2022-10-11T01:38:42.023Z,17.90
2022-10-11T01:41:13.163Z,18.57
2022-10-11T01:43:42.266Z,18.03
2022-10-11T01:46:12.224Z,20.57
2022-10-11T01:48:56.831Z,23.58
2022-10-11T01:51:29.648Z,24.90
2022-10-11T01:54:22.035Z,23.50
2022-10-11T01:57:27.501Z,26.67
2022-10-11T02:00:06.246Z,24.20
2022-10-11T02:02:33.256Z,23.73
2022-10-11T02:05:13.223Z,26.07
2022-10-11T02:07:43.272Z,29.47
2022-10-11T02:10:19.894Z,29.67
2022-10-11T02:12:54.859Z,27.73
2022-10-11T02:15:23.477Z,25.87
2022-10-11T02:17:52.163Z,27.87
2022-10-11T02:20:21.852Z,28.10
2022-10-11T02:22:52.304Z,27.00
2022-10-11T02:25:26.764Z,26.10
2022-10-11T02:27:57.910Z,24.97
2022-10-11T02:30:24.733Z,29.30
2022-10-11T02:32:52.688Z,31.40
2022-10-11T02:35:20.701Z,25.27
2022-10-11T02:38:10.396Z,31.73
2022-10-11T02:40:41.409Z,30.07
2022-10-11T02:43:19.354Z,33.23
2022-10-11T02:45:54.000Z,31.50
2022-10-11T02:48:20.884Z,35.43
2022-10-11T02:50:47.537Z,33.33
2022-10-11T02:53:14.092Z,34.97
2022-10-11T02:55:40.760Z,35.37
2022-10-11T02:58:07.382Z,35.50
2022-10-11T03:00:34.376Z,33.70
2022-10-11T03:03:01.391Z,31.93
2022-10-11T03:05:28.368Z,29.40
2022-10-11T03:07:55.341Z,33.55
2022-10-11T03:10:22.296Z,32.27
2022-10-11T03:12:49.278Z,32.20
2022-10-11T03:15:16.230Z,33.23
2022-10-11T03:17:43.198Z,31.03
2022-10-11T03:20:10.351Z,34.63
2022-10-11T03:22:37.331Z,31.87
2022-10-11T03:25:04.923Z,33.67
2022-10-11T03:27:32.694Z,33.00
2022-10-11T03:29:59.820Z,33.40
2022-10-11T03:32:26.846Z,32.57
2022-10-11T03:34:53.883Z,33.53
2022-10-11T03:37:20.877Z,32.40
2022-10-11T03:39:47.933Z,33.13
2022-10-11T03:42:15.254Z,32.20
2022-10-11T03:44:42.102Z,42.90
2022-10-11T03:47:09.229Z,34.40
2022-10-11T03:49:40.001Z,32.93
2022-10-11T03:52:10.430Z,32.63
2022-10-11T03:54:37.391Z,34.67
2022-10-11T03:57:04.678Z,34.57
2022-10-11T03:59:31.723Z,36.40
2022-10-11T04:01:58.796Z,36.37
2022-10-11T04:04:25.828Z,35.03
2022-10-11T04:06:53.451Z,35.53
2022-10-11T04:09:20.469Z,35.27
2022-10-11T04:11:47.467Z,35.43
2022-10-11T04:14:14.498Z,33.77
2022-10-11T04:16:41.882Z,34.03
2022-10-11T04:19:09.107Z,35.50
2022-10-11T04:21:36.090Z,33.70
2022-10-11T04:24:03.080Z,37.57
2022-10-11T04:26:30.099Z,32.33
2022-10-11T04:28:57.227Z,35.70
2022-10-11T04:31:24.298Z,32.40
2022-10-11T04:33:51.334Z,36.83
2022-10-11T04:36:18.359Z,35.03
2022-10-11T04:38:45.331Z,33.87
2022-10-11T04:41:13.609Z,36.33
2022-10-11T04:43:40.624Z,35.23
2022-10-11T04:46:08.329Z,35.20
2022-10-11T04:48:35.990Z,33.97
2022-10-11T04:51:02.962Z,35.93
2022-10-11T04:53:30.051Z,35.03
2022-10-11T04:56:08.042Z,34.73
2022-10-11T04:58:36.441Z,41.35
2022-10-11T05:01:04.236Z,34.37
2022-10-11T05:03:31.231Z,34.67
2022-10-11T05:06:00.978Z,33.20
2022-10-11T05:08:31.597Z,34.27
2022-10-11T05:11:03.979Z,31.50
2022-10-11T05:13:31.463Z,32.47
2022-10-11T05:15:58.824Z,32.40
2022-10-11T05:18:25.842Z,34.57
2022-10-11T05:21:09.892Z,32.43
2022-10-11T05:23:37.158Z,35.07
2022-10-11T05:26:04.991Z,31.67
2022-10-11T05:28:32.403Z,33.43
2022-10-11T05:30:59.442Z,34.97
2022-10-11T05:33:29.434Z,34.67
2022-10-11T05:35:56.439Z,32.03
2022-10-11T05:38:23.333Z,33.33
2022-10-11T05:40:50.264Z,33.37
2022-10-11T05:43:16.847Z,30.43
2022-10-11T05:45:44.569Z,31.30
2022-10-11T05:48:11.691Z,30.40
2022-10-11T05:50:39.131Z,31.93
2022-10-11T05:53:06.959Z,31.60
2022-10-11T05:55:44.090Z,32.03
2022-10-11T05:58:13.394Z,31.80
2022-10-11T06:00:40.564Z,30.87
2022-10-11T06:03:08.680Z,31.13
2022-10-11T06:05:35.803Z,30.83
2022-10-11T06:08:03.396Z,30.57
2022-10-11T06:10:29.970Z,29.83
2022-10-11T06:12:56.587Z,29.52
2022-10-11T06:15:23.183Z,31.80
2022-10-11T06:17:49.747Z,30.40
2022-10-11T06:20:16.421Z,31.80
2022-10-11T06:22:43.073Z,32.30
2022-10-11T06:25:09.933Z,31.07
2022-10-11T06:27:36.628Z,31.40
2022-10-11T06:30:04.058Z,30.13
2022-10-11T06:32:30.665Z,31.13
2022-10-11T06:34:57.249Z,31.23
2022-10-11T06:37:23.889Z,29.83
2022-10-11T06:39:50.539Z,29.47
2022-10-11T06:42:17.507Z,28.87
2022-10-11T06:44:44.095Z,28.43
2022-10-11T06:47:10.646Z,30.53
2022-10-11T06:49:37.189Z,30.20
2022-10-11T06:52:03.930Z,28.53
2022-10-11T06:54:30.451Z,32.85
2022-10-11T06:56:57.019Z,28.60
2022-10-11T06:59:23.568Z,25.53
2022-10-11T07:01:50.134Z,27.93
2022-10-11T07:04:16.729Z,24.50
2022-10-11T07:06:43.277Z,24.37
2022-10-11T07:09:09.924Z,25.60
2022-10-11T07:11:36.614Z,25.57
2022-10-11T07:14:07.516Z,26.67
2022-10-11T07:16:37.845Z,27.20
2022-10-11T07:19:06.302Z,25.67
2022-10-11T07:21:34.177Z,24.17
2022-10-11T07:24:01.932Z,24.90
2022-10-11T07:26:33.763Z,23.97
2022-10-11T07:29:04.375Z,28.63
2022-10-11T07:31:31.037Z,22.67
2022-10-11T07:33:57.631Z,23.60
2022-10-11T07:36:25.179Z,24.10
2022-10-11T07:38:51.765Z,22.70
2022-10-11T07:41:18.656Z,22.60
2022-10-11T07:43:47.686Z,22.47
2022-10-11T07:46:15.244Z,23.80
2022-10-11T07:48:41.861Z,23.00
2022-10-11T07:51:15.116Z,25.77
2022-10-11T07:53:49.927Z,23.90
2022-10-11T07:56:22.600Z,23.00
2022-10-11T07:58:54.355Z,24.27
2022-10-11T08:01:21.766Z,22.70
2022-10-11T08:03:49.675Z,22.33
2022-10-11T08:06:19.188Z,22.83
2022-10-11T08:08:45.720Z,26.45
2022-10-11T08:11:20.790Z,22.60
2022-10-11T08:13:47.327Z,23.53
2022-10-11T08:16:14.604Z,22.73
2022-10-11T08:18:41.239Z,23.07
2022-10-11T08:21:13.079Z,20.20
2022-10-11T08:23:40.039Z,20.10
2022-10-11T08:26:07.640Z,20.83
2022-10-11T08:28:34.920Z,19.87
2022-10-11T08:31:02.171Z,20.37
2022-10-11T08:33:28.796Z,20.43
2022-10-11T08:35:57.084Z,20.43
2022-10-11T08:38:24.024Z,19.43
2022-10-11T08:40:56.565Z,20.57
2022-10-11T08:43:56.367Z,20.88
2022-10-11T08:46:28.864Z,19.90
2022-10-11T08:48:56.083Z,19.67
2022-10-11T08:51:52.411Z,18.97
2022-10-11T08:54:38.607Z,20.00
2022-10-11T08:57:06.364Z,21.27
2022-10-11T08:59:48.953Z,21.20
2022-10-11T09:02:15.895Z,20.17
2022-10-11T09:04:42.932Z,21.20
2022-10-11T09:07:21.873Z,20.93
2022-10-11T09:09:51.966Z,20.13
2022-10-11T09:12:22.996Z,19.93
2022-10-11T09:15:09.734Z,17.97
2022-10-11T09:18:10.126Z,17.90
2022-10-11T09:21:08.430Z,17.77
2022-10-11T09:24:00.092Z,19.30
2022-10-11T09:26:31.341Z,17.33
2022-10-11T09:29:45.079Z,16.97
2022-10-11T09:32:15.820Z,17.13
2022-10-11T09:34:42.919Z,17.00
2022-10-11T09:37:26.597Z,17.60
2022-10-11T09:40:09.806Z,16.47
2022-10-11T09:42:36.435Z,17.03
2022-10-11T09:45:16.485Z,16.50
2022-10-11T09:47:43.087Z,17.20
2022-10-11T09:50:30.613Z,16.53
2022-10-11T09:53:00.055Z,15.33
2022-10-11T09:55:33.978Z,17.50
2022-10-11T09:58:01.340Z,15.87
2022-10-11T10:00:32.243Z,16.20
2022-10-11T10:03:01.712Z,16.43
2022-10-11T10:05:36.872Z,15.70
2022-10-11T10:08:23.007Z,15.90
2022-10-11T10:11:03.016Z,15.70
2022-10-11T10:13:53.364Z,14.97
2022-10-11T10:16:22.635Z,15.30
2022-10-11T10:19:17.743Z,15.33
2022-10-11T10:21:47.359Z,14.83
2022-10-11T10:24:37.592Z,14.43
2022-10-11T10:27:25.578Z,16.10
2022-10-11T10:30:13.323Z,15.03
2022-10-11T10:32:59.812Z,15.43
2022-10-11T10:35:42.879Z,14.73
2022-10-11T10:38:35.434Z,14.13
2022-10-11T10:41:09.179Z,14.97
2022-10-11T10:43:38.222Z,14.87
2022-10-11T10:46:31.252Z,13.17
2022-10-11T10:49:51.953Z,13.47
2022-10-11T10:52:42.049Z,13.83
2022-10-11T10:55:35.450Z,13.67
2022-10-11T10:58:07.281Z,12.37
2022-10-11T11:00:49.291Z,13.37
2022-10-11T11:03:43.696Z,14.20
2022-10-11T11:06:43.500Z,14.17
2022-10-11T11:09:45.892Z,13.67
2022-10-11T11:12:42.752Z,13.53
2022-10-11T11:15:38.140Z,13.50
2022-10-11T11:18:25.735Z,12.27
2022-10-11T11:20:58.923Z,13.23
2022-10-11T11:23:37.642Z,13.40
2022-10-11T11:26:15.049Z,12.20
2022-10-11T11:29:08.540Z,13.17
2022-10-11T11:32:03.058Z,12.87
2022-10-11T11:34:37.786Z,11.83
2022-10-11T11:37:14.911Z,12.63
2022-10-11T11:40:10.884Z,11.50
2022-10-11T11:42:45.840Z,12.07
2022-10-11T11:45:27.881Z,11.97
2022-10-11T11:48:05.356Z,12.43
2022-10-11T11:50:39.980Z,10.93
2022-10-11T11:53:21.727Z,12.53
2022-10-11T11:56:01.258Z,12.97
2022-10-11T11:58:39.670Z,12.60
2022-10-11T12:01:30.268Z,12.70
2022-10-11T12:04:21.995Z,11.97
2022-10-11T12:07:16.409Z,11.40
2022-10-11T12:09:50.409Z,11.50
2022-10-11T12:12:33.210Z,12.77
2022-10-11T12:15:08.700Z,12.50
2022-10-11T12:17:55.805Z,11.50
2022-10-11T12:20:27.063Z,11.80
2022-10-11T12:22:53.587Z,11.30
2022-10-11T12:25:23.298Z,11.27
2022-10-11T12:27:51.087Z,12.18
2022-10-11T12:30:42.395Z,12.23
2022-10-11T12:33:21.314Z,10.80
2022-10-11T12:36:29.602Z,11.37
2022-10-11T12:39:18.106Z,11.57
2022-10-11T12:41:47.843Z,11.83
2022-10-11T12:44:27.963Z,11.63
2022-10-11T12:46:54.459Z,11.40
2022-10-11T12:49:27.061Z,11.77
2022-10-11T12:52:00.828Z,10.67
2022-10-11T12:54:38.991Z,11.23
2022-10-11T12:57:11.834Z,10.23
2022-10-11T12:59:44.226Z,10.87
2022-10-11T13:02:30.487Z,10.67
2022-10-11T13:05:18.137Z,10.07
2022-10-11T13:07:45.166Z,11.35
2022-10-11T13:10:28.147Z,9.73
2022-10-11T13:12:56.402Z,10.60
2022-10-11T13:15:24.342Z,9.73
2022-10-11T13:17:54.085Z,10.53
2022-10-11T13:20:25.229Z,10.00
2022-10-11T13:22:54.374Z,10.23
2022-10-11T13:25:26.897Z,10.33
2022-10-11T13:27:55.718Z,10.00
2022-10-11T13:30:32.304Z,10.20
2022-10-11T13:33:08.452Z,10.00
2022-10-11T13:35:37.168Z,9.43
2022-10-11T13:38:07.155Z,9.80
2022-10-11T13:40:34.085Z,10.13
2022-10-11T13:43:01.268Z,11.10
2022-10-11T13:45:30.626Z,10.03
2022-10-11T13:47:57.347Z,9.87
2022-10-11T13:50:34.367Z,9.93
2022-10-11T13:53:23.765Z,10.60
2022-10-11T13:55:57.225Z,9.57
2022-10-11T13:58:32.010Z,10.20
2022-10-11T14:01:16.613Z,9.10
2022-10-11T14:03:47.336Z,8.93
2022-10-11T14:06:13.928Z,9.60
2022-10-11T14:08:47.118Z,9.97
2022-10-11T14:11:14.980Z,9.37
2022-10-11T14:13:47.375Z,10.87
2022-10-11T14:16:20.152Z,10.20
2022-10-11T14:18:49.728Z,10.40
2022-10-11T14:21:19.283Z,10.60
2022-10-11T14:23:59.449Z,9.57
2022-10-11T14:26:30.748Z,10.40
2022-10-11T14:29:00.444Z,11.03
2022-10-11T14:31:27.640Z,11.33
2022-10-11T14:33:55.279Z,10.83
2022-10-11T14:36:22.924Z,11.77
2022-10-11T14:38:53.219Z,11.23
2022-10-11T14:41:19.776Z,10.50
2022-10-11T14:43:46.392Z,11.60
2022-10-11T14:46:24.164Z,10.20
2022-10-11T14:48:56.576Z,11.53
2022-10-11T14:51:28.862Z,10.87
2022-10-11T14:53:55.496Z,11.47
2022-10-11T14:56:22.107Z,11.60
2022-10-11T14:58:49.091Z,10.97
2022-10-11T15:01:16.795Z,12.00
2022-10-11T15:03:43.564Z,10.67
2022-10-11T15:06:22.765Z,10.30
2022-10-11T15:08:49.524Z,10.60
2022-10-11T15:11:19.390Z,10.30
2022-10-11T15:13:46.524Z,11.57
2022-10-11T15:16:14.894Z,11.53
2022-10-11T15:18:42.296Z,12.07
2022-10-11T15:21:13.526Z,12.03
2022-10-11T15:23:40.238Z,12.10
2022-10-11T15:26:07.106Z,11.23
2022-10-11T15:28:34.193Z,11.70
2022-10-11T15:31:00.920Z,12.10
2022-10-11T15:33:27.579Z,12.03
2022-10-11T15:35:54.291Z,11.80
2022-10-11T15:38:23.880Z,11.27
2022-10-11T15:40:52.232Z,10.97
2022-10-11T15:43:24.258Z,11.57
2022-10-11T15:45:51.763Z,11.27
2022-10-11T15:48:20.928Z,11.30
2022-10-11T15:50:49.165Z,12.07
2022-10-11T15:53:21.640Z,11.40
2022-10-11T15:55:50.779Z,11.63
2022-10-11T15:58:26.401Z,12.47
2022-10-11T16:00:55.622Z,12.20
2022-10-11T16:03:25.142Z,11.67
2022-10-11T16:05:53.134Z,12.13
2022-10-11T16:08:20.160Z,12.93
2022-10-11T16:10:47.074Z,12.20
2022-10-11T16:13:14.198Z,11.83
2022-10-11T16:15:42.642Z,11.67
2022-10-11T16:18:13.037Z,12.90
2022-10-11T16:20:40.970Z,12.83
2022-10-11T16:23:07.887Z,11.13
2022-10-11T16:25:34.512Z,12.63
2022-10-11T16:28:02.386Z,14.43
2022-10-11T16:30:29.444Z,12.97
2022-10-11T16:32:56.906Z,12.90
2022-10-11T16:35:24.964Z,14.10
2022-10-11T16:37:53.915Z,13.43
2022-10-11T16:40:21.950Z,13.60
2022-10-11T16:42:48.990Z,13.97
2022-10-11T16:45:16.446Z,15.00
2022-10-11T16:47:43.875Z,14.50
2022-10-11T16:50:11.397Z,14.07
2022-10-11T16:52:37.974Z,16.57
2022-10-11T16:55:05.053Z,14.23
2022-10-11T16:57:31.777Z,13.43
2022-10-11T16:59:58.338Z,15.40
2022-10-11T17:02:31.326Z,13.73
2022-10-11T17:04:59.258Z,14.40
2022-10-11T17:07:26.438Z,14.70
2022-10-11T17:09:53.031Z,14.77
2022-10-11T17:12:23.225Z,15.03
2022-10-11T17:14:50.547Z,15.07
2022-10-11T17:17:18.347Z,14.73
2022-10-11T17:19:45.741Z,15.23
2022-10-11T17:22:14.932Z,14.47
2022-10-11T17:24:41.664Z,15.43
2022-10-11T17:27:08.274Z,16.03
2022-10-11T17:29:35.151Z,17.60
2022-10-11T17:32:02.125Z,16.10
2022-10-11T17:34:29.528Z,17.13
2022-10-11T17:36:56.092Z,15.93
2022-10-11T17:39:23.791Z,15.33
2022-10-11T17:41:51.049Z,15.87
2022-10-11T17:44:18.364Z,15.13
2022-10-11T17:46:45.704Z,15.97
2022-10-11T17:49:12.718Z,16.33
2022-10-11T17:51:40.017Z,16.43
2022-10-11T17:54:12.100Z,15.97
2022-10-11T17:56:39.947Z,18.85
2022-10-11T17:59:06.947Z,16.53
2022-10-11T18:01:33.655Z,20.80
2022-10-11T18:04:03.391Z,18.13
2022-10-11T18:06:33.030Z,22.57
2022-10-11T18:09:01.806Z,21.67
2022-10-11T18:11:29.141Z,26.57
2022-10-11T18:13:56.237Z,19.50
2022-10-11T18:16:26.804Z,18.37
2022-10-11T18:18:54.647Z,16.60
2022-10-11T18:21:21.237Z,17.70
2022-10-11T18:23:47.869Z,16.30
2022-10-11T18:26:17.150Z,16.47
2022-10-11T18:28:44.357Z,16.37
2022-10-11T18:31:15.268Z,16.60
2022-10-11T18:33:42.991Z,17.00
2022-10-11T18:36:13.172Z,20.00
2022-10-11T18:38:43.866Z,18.70
2022-10-11T18:41:11.531Z,20.00
2022-10-11T18:43:38.434Z,20.17
2022-10-11T18:46:13.631Z,21.43
2022-10-11T18:48:44.466Z,17.40
2022-10-11T18:51:14.890Z,18.20
2022-10-11T18:53:42.168Z,16.57
2022-10-11T18:56:10.430Z,16.93
2022-10-11T18:58:38.175Z,16.13
2022-10-11T19:01:10.254Z,16.87
2022-10-11T19:03:37.219Z,16.57
2022-10-11T19:06:12.644Z,15.37
2022-10-11T19:08:39.171Z,15.77
2022-10-11T19:11:09.992Z,17.73
2022-10-11T19:13:36.885Z,18.13
2022-10-11T19:16:11.400Z,16.53
2022-10-11T19:18:41.820Z,16.83
2022-10-11T19:21:12.588Z,17.90
2022-10-11T19:23:41.767Z,17.90
2022-10-11T19:26:14.299Z,16.93
2022-10-11T19:28:41.385Z,16.23
2022-10-11T19:31:10.039Z,16.60
2022-10-11T19:33:37.076Z,16.67
2022-10-11T19:36:05.618Z,17.07
2022-10-11T19:38:34.139Z,15.73
2022-10-11T19:41:02.059Z,16.50
2022-10-11T19:43:28.608Z,15.90
2022-10-11T19:46:03.276Z,16.50
2022-10-11T19:48:30.370Z,16.33
2022-10-11T19:51:08.291Z,15.73
2022-10-11T19:53:35.719Z,16.20
2022-10-11T19:56:03.813Z,16.00
2022-10-11T19:58:30.559Z,17.37
2022-10-11T20:01:01.755Z,15.60
2022-10-11T20:03:28.334Z,17.17
2022-10-11T20:05:54.965Z,15.80
2022-10-11T20:08:21.674Z,16.70
2022-10-11T20:10:48.236Z,16.37
2022-10-11T20:13:14.780Z,18.33
2022-10-11T20:15:41.349Z,16.67
2022-10-11T20:18:08.196Z,16.60
2022-10-11T20:20:34.768Z,17.40
2022-10-11T20:23:01.372Z,17.43
2022-10-11T20:25:27.920Z,18.27
2022-10-11T20:27:54.476Z,22.03
2022-10-11T20:30:21.093Z,19.47
2022-10-11T20:32:47.619Z,18.80
2022-10-11T20:35:14.270Z,17.60
2022-10-11T20:37:40.795Z,16.93
2022-10-11T20:40:07.931Z,16.30
2022-10-11T20:42:34.485Z,16.33
2022-10-11T20:45:01.231Z,15.90
2022-10-11T20:47:27.779Z,14.87
2022-10-11T20:49:54.320Z,15.83
2022-10-11T20:52:20.862Z,15.30
2022-10-11T20:54:47.408Z,15.90
2022-10-11T20:57:13.992Z,16.40
2022-10-11T20:59:40.539Z,15.77
2022-10-11T21:02:07.264Z,15.27
2022-10-11T21:04:33.829Z,17.73
2022-10-11T21:07:00.393Z,17.60
2022-10-11T21:09:26.982Z,17.98
2022-10-11T21:11:53.507Z,16.83
2022-10-11T21:14:20.082Z,17.10
2022-10-11T21:16:46.693Z,17.20
2022-10-11T21:19:14.997Z,16.93
2022-10-11T21:21:42.630Z,16.77
2022-10-11T21:24:09.184Z,16.63
2022-10-11T21:26:35.769Z,17.97
2022-10-11T21:29:03.965Z,17.07
2022-10-11T21:31:34.048Z,17.37
2022-10-11T21:34:01.846Z,16.67
2022-10-11T21:36:28.454Z,15.77
2022-10-11T21:38:54.993Z,15.77
2022-10-11T21:41:25.432Z,17.40
2022-10-11T21:43:52.527Z,16.40
2022-10-11T21:46:29.283Z,15.70
2022-10-11T21:49:03.504Z,16.17
2022-10-11T21:51:31.102Z,16.63
2022-10-11T21:54:00.214Z,16.13
2022-10-11T21:56:27.758Z,16.73
2022-10-11T21:58:54.435Z,17.10
2022-10-11T22:01:21.721Z,16.30
2022-10-11T22:03:49.171Z,17.90
2022-10-11T22:06:16.329Z,17.67
2022-10-11T22:08:42.910Z,18.07
2022-10-11T22:11:10.105Z,16.87
2022-10-11T22:13:36.854Z,18.13
2022-10-11T22:16:05.701Z,18.30
2022-10-11T22:18:33.814Z,18.37
2022-10-11T22:21:21.283Z,16.77
2022-10-11T22:23:50.882Z,17.00
2022-10-11T22:26:23.410Z,20.90
2022-10-11T22:28:50.112Z,17.77
2022-10-11T22:31:18.466Z,15.97
2022-10-11T22:36:18.836Z,17.90
2022-10-11T22:38:46.244Z,17.63
2022-10-11T22:41:13.132Z,18.37
2022-10-11T22:43:40.128Z,17.43
2022-10-11T22:46:07.214Z,18.73
2022-10-11T22:48:33.892Z,18.20
2022-10-11T22:51:01.015Z,18.90
2022-10-11T22:53:28.131Z,17.30
2022-10-11T22:55:54.759Z,18.27
2022-10-11T22:58:21.298Z,18.73
2022-10-11T23:00:47.877Z,19.10
2022-10-11T23:03:15.925Z,18.67
2022-10-11T23:05:42.894Z,22.02
2022-10-11T23:08:10.267Z,19.93
2022-10-11T23:10:40.432Z,19.57
2022-10-11T23:13:07.563Z,17.60
2022-10-11T23:15:34.130Z,18.47
2022-10-11T23:18:00.683Z,17.77
2022-10-11T23:20:27.314Z,18.77
2022-10-11T23:22:53.848Z,20.07
2022-10-11T23:25:20.399Z,19.43
2022-10-11T23:27:46.978Z,18.63
2022-10-11T23:30:13.736Z,18.87
2022-10-11T23:32:40.273Z,17.97
2022-10-11T23:35:07.170Z,17.77
2022-10-11T23:37:33.774Z,17.37
2022-10-11T23:40:00.322Z,19.07
2022-10-11T23:42:26.840Z,18.23
2022-10-11T23:44:54.110Z,18.83
2022-10-11T23:47:20.648Z,18.87
2022-10-11T23:49:47.192Z,18.97
2022-10-11T23:52:13.768Z,18.70
2022-10-11T23:54:40.313Z,18.20
2022-10-11T23:57:06.860Z,17.73
2022-10-11T23:59:33.397Z,17.83
